Time;durP1;ratioP1;P1;durP2;ratioP2;P2;SDS_P1;SDS_P2;PMS_P1;PMS_P2;Temp;Humidity;BMP_temperature;BMP_pressure;BME280_temperature;BME280_humidity;BME280_pressure;Samples;Min_cycle;Max_cycle;Signal;HPM_P1;HPM_P2
2022/06/30 00:01:03;;;;;;;11.63;8.13;;;;;;;21.79;100.00;97879.33;1638772;86;28088;-85
2022/06/30 00:03:29;;;;;;;9.63;7.40;;;;;;;21.76;100.00;97881.06;1638420;86;28172;-85
2022/06/30 00:05:55;;;;;;;10.03;7.20;;;;;;;21.84;100.00;97880.91;1638365;87;28230;-88
2022/06/30 00:08:23;;;;;;;14.85;8.00;;;;;;;21.98;100.00;97879.23;1675075;85;28071;-88
2022/06/30 00:10:48;;;;;;;9.93;7.60;;;;;;;22.06;100.00;97871.08;1638032;86;28120;-88
2022/06/30 00:13:15;;;;;;;9.35;7.05;;;;;;;22.17;100.00;97868.39;1673084;85;28016;-88
2022/06/30 00:15:43;;;;;;;9.10;7.42;;;;;;;22.29;100.00;97863.67;1685164;84;28090;-84
2022/06/30 00:18:09;;;;;;;9.58;7.15;;;;;;;22.41;100.00;97866.12;1638505;85;28093;-84
2022/06/30 00:20:35;;;;;;;10.90;8.25;;;;;;;22.52;100.00;97864.75;1674855;84;28015;-84
2022/06/30 00:23:01;;;;;;;12.35;8.38;;;;;;;22.59;100.00;97858.91;1682930;84;28087;-84
2022/06/30 00:25:27;;;;;;;11.38;7.90;;;;;;;22.65;100.00;97856.80;1684283;84;28161;-84
2022/06/30 00:27:53;;;;;;;10.13;6.95;;;;;;;22.61;100.00;97854.22;1602773;89;28048;-84
2022/06/30 00:30:20;;;;;;;9.58;7.08;;;;;;;22.40;100.00;97847.64;1634840;86;28116;-84
2022/06/30 00:32:49;;;;;;;12.58;7.87;;;;;;;22.25;100.00;97844.27;1612242;87;28160;-84
2022/06/30 00:35:15;;;;;;;9.13;7.42;;;;;;;22.06;100.00;97842.59;1626013;87;28010;-87
2022/06/30 00:37:42;;;;;;;8.88;7.85;;;;;;;22.06;100.00;97843.92;1626500;87;28080;-87
2022/06/30 00:40:09;;;;;;;9.60;8.18;;;;;;;22.09;100.00;97844.86;1629014;86;28027;-88
2022/06/30 00:42:35;;;;;;;9.38;7.65;;;;;;;22.04;100.00;97839.80;1628770;87;28097;-85
2022/06/30 00:45:01;;;;;;;9.28;7.55;;;;;;;22.11;100.00;97843.34;1627014;87;28149;-85
2022/06/30 00:47:28;;;;;;;12.70;7.35;;;;;;;22.24;100.00;97839.44;1628117;86;28155;-85
2022/06/30 00:49:54;;;;;;;10.35;7.50;;;;;;;22.34;100.00;97840.42;1627766;86;28094;-85
2022/06/30 00:52:23;;;;;;;13.70;7.83;;;;;;;22.36;100.00;97834.39;1623820;87;28108;-85
2022/06/30 00:54:54;;;;;;;13.32;7.92;;;;;;;22.37;100.00;97839.51;1628222;86;28151;-87
2022/06/30 00:57:30;;;;;;;12.43;8.30;;;;;;;22.33;100.00;97836.92;1627202;86;28096;-88
2022/06/30 00:59:57;;;;;;;13.58;8.65;;;;;;;22.31;100.00;97832.83;1626654;87;28127;-83
2022/06/30 01:02:30;;;;;;;16.52;8.63;;;;;;;22.30;100.00;97829.34;1626081;87;28180;-83
2022/06/30 01:04:57;;;;;;;12.85;8.98;;;;;;;22.31;100.00;97830.16;1629291;87;28206;-83
2022/06/30 01:07:25;;;;;;;13.32;8.45;;;;;;;22.33;100.00;97828.10;1623606;86;28072;-87
2022/06/30 01:12:42;;;;;;;10.65;7.65;;;;;;;22.33;100.00;97828.10;1625835;86;28102;-87
2022/06/30 01:15:10;;;;;;;10.28;8.43;;;;;;;22.31;100.00;97834.95;1627534;86;28218;-84
2022/06/30 01:17:36;;;;;;;10.68;7.80;;;;;;;22.30;100.00;97829.34;1625650;86;28055;-87
2022/06/30 01:20:03;;;;;;;9.63;6.92;;;;;;;22.10;100.00;97827.03;1629193;87;28115;-85
2022/06/30 01:22:32;;;;;;;10.45;7.45;;;;;;;21.92;100.00;97831.50;1626250;87;28112;-85
2022/06/30 01:24:58;;;;;;;9.73;7.17;;;;;;;21.80;100.00;97827.70;1625994;86;28096;-84
2022/06/30 01:27:25;;;;;;;10.68;7.60;;;;;;;21.80;100.00;97831.70;1628235;86;28085;-84
2022/06/30 01:29:58;;;;;;;9.83;7.35;;;;;;;21.88;100.00;97831.55;1626329;86;28079;-83
2022/06/30 01:32:28;;;;;;;10.05;7.90;;;;;;;21.92;100.00;97834.67;1627509;87;28067;-83
2022/06/30 01:34:54;;;;;;;10.90;7.60;;;;;;;21.96;100.00;97836.78;1672188;85;28107;-83
2022/06/30 01:37:20;;;;;;;10.15;7.85;;;;;;;22.00;100.00;97839.88;1684631;84;28090;-83
2022/06/30 01:39:49;;;;;;;9.78;7.60;;;;;;;22.03;100.00;97839.50;1683781;84;28175;-82
2022/06/30 01:42:15;;;;;;;10.15;7.83;;;;;;;21.96;100.00;97833.29;1686018;84;28039;-83
2022/06/30 01:44:42;;;;;;;10.13;8.18;;;;;;;21.88;100.00;97845.38;1682916;84;28209;-83
2022/06/30 01:47:09;;;;;;;13.72;8.65;;;;;;;21.91;100.00;97846.34;1681758;84;28137;-82
2022/06/30 01:49:37;;;;;;;16.85;8.80;;;;;;;21.88;100.00;97868.85;1681070;84;28082;-84
2022/06/30 01:52:04;;;;;;;11.30;8.13;;;;;;;21.78;100.00;97882.18;1644680;86;28147;-84
2022/06/30 01:54:31;;;;;;;10.63;7.87;;;;;;;21.72;100.00;97887.77;1634676;87;28174;-84
2022/06/30 01:56:58;;;;;;;11.38;7.85;;;;;;;21.61;100.00;97885.10;1632311;87;28110;-84
2022/06/30 01:59:24;;;;;;;11.90;8.20;;;;;;;21.58;100.00;97884.66;1633325;87;28044;-84
2022/06/30 02:01:50;;;;;;;12.75;8.40;;;;;;;21.59;100.00;97881.83;1633089;87;28114;-84
2022/06/30 02:07:01;;;;;;;12.65;8.55;;;;;;;21.51;100.00;97884.59;1631793;87;28100;-84
2022/06/30 02:09:27;;;;;;;8.70;7.30;;;;;;;21.54;100.00;97879.41;1633562;87;28054;-84
2022/06/30 02:12:45;;;;;;;10.50;7.53;;;;;;;21.53;100.00;97880.42;1633944;87;28193;-84
2022/06/30 02:14:21;;;;;;;12.88;7.28;;;;;;;21.39;100.00;97871.95;1633018;87;28078;-83
2022/06/30 02:16:47;;;;;;;12.35;8.10;;;;;;;21.36;100.00;97878.50;1634497;87;28137;-83
2022/06/30 02:19:13;;;;;;;14.00;8.03;;;;;;;21.42;100.00;97865.77;1633104;87;28105;-83
2022/06/30 02:21:40;;;;;;;12.95;8.20;;;;;;;21.46;100.00;97875.53;1634036;87;43570;-88
2022/06/30 02:24:06;;;;;;;12.18;8.38;;;;;;;21.49;100.00;97884.48;1634061;87;28213;-88
2022/06/30 02:26:32;;;;;;;11.33;7.55;;;;;;;21.50;100.00;97883.45;1632942;87;28147;-83
2022/06/30 02:28:58;;;;;;;10.88;8.05;;;;;;;21.49;100.00;97893.27;1633796;87;43575;-83
2022/06/30 02:31:24;;;;;;;12.35;7.65;;;;;;;21.48;100.00;97898.30;1631189;87;28246;-83
2022/06/30 02:33:50;;;;;;;13.32;8.15;;;;;;;21.48;100.00;97894.81;1632954;87;43563;-88
2022/06/30 02:36:16;;;;;;;10.85;8.10;;;;;;;21.46;100.00;97891.50;1630340;87;28106;-84
2022/06/30 02:38:42;;;;;;;11.18;7.83;;;;;;;21.46;100.00;97896.83;1633577;87;28116;-87
2022/06/30 02:41:08;;;;;;;9.13;7.25;;;;;;;21.48;100.00;97897.47;1632323;87;28087;-88
2022/06/30 02:43:34;;;;;;;11.35;7.35;;;;;;;21.37;100.00;97900.13;1633705;87;43567;-88
2022/06/30 02:46:00;;;;;;;8.80;7.95;;;;;;;21.26;100.00;97912.59;1633308;87;43105;-87
2022/06/30 02:48:26;;;;;;;9.90;7.35;;;;;;;21.29;100.00;97918.86;1630990;87;28137;-83
2022/06/30 02:50:52;;;;;;;14.05;7.40;;;;;;;21.32;100.00;97918.50;1634565;87;43559;-83
2022/06/30 02:53:21;;;;;;;8.25;7.10;;;;;;;21.31;100.00;97926.66;1633958;87;43164;-83
2022/06/30 02:55:48;;;;;;;13.15;8.20;;;;;;;21.32;100.00;97923.00;1633989;87;28142;-83
2022/06/30 02:58:15;;;;;;;11.38;8.65;;;;;;;21.41;100.00;97925.85;1632068;87;28071;-83
2022/06/30 03:00:41;;;;;;;11.60;7.95;;;;;;;21.49;100.00;97932.41;1634089;87;28153;-84
2022/06/30 03:03:07;;;;;;;11.93;8.10;;;;;;;21.57;100.00;97927.78;1634574;87;28094;-84
2022/06/30 03:05:33;;;;;;;13.88;9.10;;;;;;;21.62;100.00;97930.70;1631934;87;28044;-84
2022/06/30 03:08:01;;;;;;;13.93;9.03;;;;;;;21.64;100.00;97925.19;1612820;87;28138;-84
2022/06/30 03:10:27;;;;;;;15.88;11.33;;;;;;;21.68;100.00;97925.12;1633868;87;28156;-84
2022/06/30 03:12:53;;;;;;;17.92;13.25;;;;;;;21.70;100.00;97915.94;1631937;87;28424;-84
2022/06/30 03:15:20;;;;;;;19.42;13.72;;;;;;;21.74;100.00;97922.20;1633879;87;28009;-84
2022/06/30 03:17:49;;;;;;;22.20;13.20;;;;;;;21.76;100.00;97934.34;1634500;87;28009;-84
2022/06/30 03:20:15;;;;;;;19.42;12.45;;;;;;;21.76;100.00;97934.34;1673572;84;28064;-84
2022/06/30 03:22:41;;;;;;;13.75;10.30;;;;;;;21.69;100.00;97926.78;1635474;86;28093;-84
2022/06/30 03:25:07;;;;;;;15.08;8.68;;;;;;;21.56;100.00;97926.63;1612173;88;28117;-84
2022/06/30 03:27:34;;;;;;;21.93;14.60;;;;;;;21.45;100.00;97934.60;1611224;87;28084;-88
2022/06/30 03:30:00;;;;;;;23.52;15.43;;;;;;;21.47;100.00;97947.23;1621137;87;28076;-88
2022/06/30 03:32:32;;;;;;;21.60;13.68;;;;;;;21.61;100.00;97967.66;1623653;87;28221;-85
2022/06/30 03:34:58;;;;;;;19.32;14.70;;;;;;;21.71;100.00;97967.38;1622149;87;28049;-83
2022/06/30 03:37:34;;;;;;;26.27;17.27;;;;;;;21.73;100.00;97965.33;1615947;87;28115;-83
2022/06/30 03:40:01;;;;;;;25.20;17.77;;;;;;;21.80;100.00;97979.55;1619078;87;28103;-84
2022/06/30 03:42:27;;;;;;;23.65;16.27;;;;;;;21.88;100.00;97981.25;1620717;87;28210;-83
2022/06/30 03:44:53;;;;;;;24.12;17.77;;;;;;;21.91;100.00;97986.22;1632189;87;28076;-83
2022/06/30 03:47:19;;;;;;;26.45;18.55;;;;;;;21.91;100.00;97988.38;1636844;86;28139;-84
2022/06/30 03:49:46;;;;;;;27.15;18.73;;;;;;;21.95;100.00;97995.01;1629133;87;28162;-83
2022/06/30 03:52:12;;;;;;;26.90;18.05;;;;;;;21.99;100.00;98004.27;1632825;87;28086;-84
2022/06/30 03:54:44;;;;;;;29.35;19.37;;;;;;;22.01;100.00;97998.75;1632796;87;28056;-83
2022/06/30 03:57:10;;;;;;;25.68;18.77;;;;;;;22.04;100.00;97998.36;1671838;85;28176;-84
2022/06/30 03:59:37;;;;;;;26.27;17.05;;;;;;;22.04;100.00;97989.86;1638546;87;28207;-85
2022/06/30 04:02:06;;;;;;;26.42;19.32;;;;;;;22.07;100.00;97994.83;1675047;85;28012;-84
2022/06/30 04:04:32;;;;;;;28.75;18.65;;;;;;;22.15;100.00;97990.39;1637960;87;28243;-85
2022/06/30 04:06:58;;;;;;;26.62;19.20;;;;;;;22.21;100.00;97997.59;1672692;85;28285;-85
2022/06/30 04:09:27;;;;;;;28.92;19.52;;;;;;;22.32;100.00;97999.75;1638479;87;28084;-89
2022/06/30 04:11:53;;;;;;;26.85;19.35;;;;;;;22.50;100.00;98004.12;1676125;85;28102;-85
2022/06/30 04:14:19;;;;;;;29.18;20.32;;;;;;;22.68;100.00;98002.31;1673980;85;28138;-85
2022/06/30 04:16:45;;;;;;;26.37;18.47;;;;;;;22.85;100.00;97994.37;1683343;84;28084;-85
2022/06/30 04:19:14;;;;;;;27.42;19.00;;;;;;;23.02;100.00;97993.01;1682247;84;28178;-86
2022/06/30 04:21:40;;;;;;;25.80;19.75;;;;;;;23.16;100.00;97987.25;1676924;84;28056;-85
2022/06/30 04:24:06;;;;;;;26.90;17.75;;;;;;;23.30;100.00;97995.12;1659046;84;28138;-85
2022/06/30 04:26:32;;;;;;;27.90;18.12;;;;;;;23.43;100.00;97993.03;1673510;85;28094;-86
2022/06/30 04:28:59;;;;;;;27.37;18.10;;;;;;;23.53;100.00;97993.51;1673395;85;28130;-85
2022/06/30 04:34:11;;;;;;;23.60;18.42;;;;;;;23.69;100.00;97990.48;1673686;85;28124;-85
2022/06/30 04:36:37;;;;;;;27.98;18.10;;;;;;;23.75;100.00;97992.86;1673659;84;28079;-84
2022/06/30 04:39:04;;;;;;;24.10;17.92;;;;;;;23.76;100.00;97995.85;1675514;85;28024;-88
2022/06/30 04:41:30;;;;;;;25.60;18.00;;;;;;;23.80;100.00;98002.43;1673126;85;28156;-88
2022/06/30 04:43:58;;;;;;;24.50;17.87;;;;;;;23.76;100.00;98000.69;1673704;85;28059;-89
2022/06/30 04:46:25;;;;;;;26.93;17.90;;;;;;;23.75;100.00;97998.20;1672389;85;28199;-88
2022/06/30 04:48:52;;;;;;;;;;;;;;;23.78;100.00;97999.16;1680763;85;24812;-88
2022/06/30 04:51:18;;;;;;;;;;;;;;;23.81;100.00;97998.74;1676078;85;21685;-84
2022/06/30 04:53:44;;;;;;;;;;;;;;;23.87;100.00;98004.62;1681713;85;25965;-84
2022/06/30 04:56:10;;;;;;;;;;;;;;;23.95;100.00;98010.27;1680053;85;20266;-88
2022/06/30 04:58:36;;;;;;;;;;;;;;;23.99;100.00;98004.86;1680232;85;20236;-88
2022/06/30 05:01:03;;;;;;;28.00;20.52;;;;;;;24.00;100.00;97993.94;1673632;85;24878;-88
2022/06/30 05:03:32;;;;;;;28.07;19.87;;;;;;;24.02;100.00;97997.25;1674725;85;28126;-85
2022/06/30 05:05:59;;;;;;;25.43;18.32;;;;;;;24.04;100.00;97999.72;1672854;85;28485;-85
2022/06/30 05:08:25;;;;;;;26.73;20.45;;;;;;;24.04;100.00;98003.73;1675678;85;28014;-84
2022/06/30 05:10:52;;;;;;;23.92;17.45;;;;;;;24.06;100.00;97998.98;1673713;85;28078;-84
2022/06/30 05:13:18;;;;;;;24.05;16.55;;;;;;;24.07;100.00;97996.13;1673805;85;28067;-85
2022/06/30 05:15:47;;;;;;;23.42;17.80;;;;;;;24.05;100.00;97992.02;1675274;85;28122;-85
2022/06/30 05:18:14;;;;;;;22.27;16.30;;;;;;;24.05;100.00;97993.36;1675061;85;28063;-85
2022/06/30 05:20:41;;;;;;;27.42;18.65;;;;;;;24.05;100.00;98001.38;1689153;84;28207;-85
2022/06/30 05:23:08;;;;;;;28.15;19.00;;;;;;;24.07;100.00;98004.14;1692366;84;28054;-89
2022/06/30 05:28:21;;;;;;;23.92;18.20;;;;;;;24.13;100.00;98010.52;1657079;84;28103;-89
2022/06/30 05:30:48;;;;;;;26.37;18.40;;;;;;;24.15;100.00;98010.65;1691265;83;28178;-84
2022/06/30 05:33:15;;;;;;;23.83;17.05;;;;;;;24.16;100.00;98002.11;1691838;84;28152;-84
2022/06/30 05:35:42;;;;;;;24.10;17.07;;;;;;;24.19;100.00;98007.08;1691952;84;28084;-85
2022/06/30 05:38:08;;;;;;;26.45;16.75;;;;;;;24.26;100.00;98000.41;1691237;84;28144;-84
2022/06/30 05:40:38;;;;;;;25.25;17.48;;;;;;;24.28;100.00;97996.99;1692219;84;27995;-84
2022/06/30 05:43:04;;;;;;;23.47;17.00;;;;;;;24.32;100.00;97988.89;1692349;84;28117;-84
2022/06/30 05:45:30;;;;;;;25.88;17.67;;;;;;;24.36;100.00;97990.95;1691398;84;28140;-84
2022/06/30 05:47:56;;;;;;;23.77;17.55;;;;;;;24.42;100.00;97987.97;1690106;84;28169;-84
2022/06/30 05:50:22;;;;;;;27.52;18.55;;;;;;;24.43;100.00;97989.11;1691887;84;28116;-84
2022/06/30 05:52:50;;;;;;;25.43;18.50;;;;;;;24.42;100.00;97986.63;1692094;84;28152;-84
2022/06/30 05:55:17;;;;;;;23.32;17.80;;;;;;;24.42;100.00;97992.80;1691729;84;28092;-84
2022/06/30 05:57:52;;;;;;;24.95;18.80;;;;;;;24.47;100.00;97983.64;1690970;84;28043;-84
2022/06/30 06:00:22;;;;;;;26.25;18.05;;;;;;;24.54;100.00;97987.15;1692298;84;28214;-88
2022/06/30 06:02:49;;;;;;;27.32;18.50;;;;;;;24.58;100.00;97991.56;1692069;84;28198;-88
2022/06/30 06:05:16;;;;;;;28.57;20.02;;;;;;;24.63;100.00;97989.59;1692857;84;28093;-84
2022/06/30 06:07:43;;;;;;;26.95;19.55;;;;;;;24.68;100.00;97990.63;1691933;84;28102;-84
2022/06/30 06:10:10;;;;;;;29.32;19.67;;;;;;;24.72;100.00;97983.81;1692262;84;28184;-84
2022/06/30 06:12:36;;;;;;;26.73;19.60;;;;;;;24.73;100.00;97982.80;1692036;84;28178;-84
2022/06/30 06:15:03;;;;;;;28.52;19.30;;;;;;;24.80;100.00;97986.30;1691668;84;28070;-84
2022/06/30 06:17:30;;;;;;;30.72;19.15;;;;;;;24.87;100.00;97987.63;1692262;84;28116;-88
2022/06/30 06:19:57;;;;;;;27.55;18.87;;;;;;;24.93;100.00;97992.98;1694621;82;28067;-85
2022/06/30 06:22:27;;;;;;;27.13;20.30;;;;;;;24.99;100.00;97989.98;1700072;84;28097;-85
2022/06/30 06:24:53;;;;;;;29.37;18.15;;;;;;;25.03;100.00;97993.91;1691761;84;28137;-85
2022/06/30 06:27:19;;;;;;;22.40;19.15;;;;;;;25.07;100.00;97991.63;1691705;84;28157;-89
2022/06/30 06:29:45;;;;;;;25.65;19.85;;;;;;;25.12;100.00;97992.64;1689484;84;28032;-84
2022/06/30 06:32:11;;;;;;;28.62;19.27;;;;;;;25.19;100.00;97994.80;1691169;84;28119;-84
2022/06/30 06:34:37;;;;;;;23.83;18.35;;;;;;;25.27;100.00;97986.51;1691691;84;27986;-84
2022/06/30 06:37:04;;;;;;;22.87;17.95;;;;;;;25.34;100.00;97980.63;1690401;84;28020;-84
2022/06/30 06:39:32;;;;;;;25.17;17.67;;;;;;;25.36;100.00;97981.76;1690234;83;28090;-84
2022/06/30 06:41:59;;;;;;;23.80;18.20;;;;;;;25.37;100.00;97986.88;1691350;84;28085;-84
2022/06/30 06:44:31;;;;;;;24.25;18.80;;;;;;;25.48;100.00;97991.27;1691156;84;28087;-83
2022/06/30 06:46:57;;;;;;;23.42;17.95;;;;;;;25.60;100.00;97986.92;1691886;83;28067;-84
2022/06/30 06:49:27;;;;;;;22.50;18.27;;;;;;;25.76;100.00;97991.28;1692128;84;28101;-84
2022/06/30 06:51:57;;;;;;;25.60;19.02;;;;;;;25.81;100.00;97990.63;1692090;84;28070;-85
2022/06/30 06:54:23;;;;;;;32.00;20.75;;;;;;;25.73;100.00;97993.58;1689945;84;28091;-85
2022/06/30 06:56:51;;;;;;;25.62;19.32;;;;;;;25.85;100.00;97993.21;1691762;84;28117;-85
2022/06/30 06:59:17;;;;;;;29.07;19.23;;;;;;;25.95;100.00;97989.53;1692769;84;28389;-88
2022/06/30 07:01:43;;;;;;;32.90;20.77;;;;;;;26.00;100.00;97985.69;1690882;84;28176;-88
2022/06/30 07:04:10;;;;;;;26.42;18.75;;;;;;;25.99;100.00;97985.38;1690291;84;28126;-85
2022/06/30 07:06:36;;;;;;;28.45;19.90;;;;;;;26.00;100.00;97983.52;1690977;84;28019;-85
2022/06/30 07:09:03;;;;;;;24.95;19.23;;;;;;;26.02;100.00;97978.77;1689575;84;28074;-88
2022/06/30 07:11:31;;;;;;;28.42;20.23;;;;;;;26.09;100.00;97980.87;1668516;84;28094;-88
2022/06/30 07:13:57;;;;;;;30.80;21.52;;;;;;;26.14;100.00;97976.50;1691513;84;28027;-88
2022/06/30 07:16:23;;;;;;;29.35;20.12;;;;;;;26.16;100.00;97979.80;1691335;84;28128;-85
2022/06/30 07:18:49;;;;;;;27.42;20.17;;;;;;;26.28;100.00;97976.45;1691216;84;28086;-85
2022/06/30 07:21:15;;;;;;;26.90;19.23;;;;;;;26.29;100.00;97972.73;1692790;83;28099;-85
2022/06/30 07:23:42;;;;;;;26.20;18.32;;;;;;;26.35;100.00;97965.95;1679493;84;28059;-86
2022/06/30 07:26:11;;;;;;;27.02;18.90;;;;;;;26.48;100.00;97970.39;1676870;85;28195;-86
2022/06/30 07:28:37;;;;;;;23.45;19.35;;;;;;;26.63;100.00;97970.88;1657687;85;28050;-88
2022/06/30 07:31:04;;;;;;;26.07;18.65;;;;;;;26.67;100.00;97967.25;1673683;85;28079;-89
2022/06/30 07:33:30;;;;;;;21.48;17.15;;;;;;;26.71;100.00;97961.73;1648822;85;28122;-88
2022/06/30 07:36:02;;;;;;;22.13;16.95;;;;;;;26.82;100.00;97956.97;1675938;85;28077;-88
2022/06/30 07:38:28;;;;;;;24.77;17.65;;;;;;;26.92;100.00;97970.22;1677761;85;28051;-86
2022/06/30 07:40:55;;;;;;;24.07;18.07;;;;;;;26.94;100.00;97961.95;1674758;85;28157;-85
2022/06/30 07:43:21;;;;;;;20.62;16.70;;;;;;;26.89;100.00;97956.42;1676619;84;28091;-85
2022/06/30 07:45:47;;;;;;;21.17;16.73;;;;;;;26.91;100.00;97948.42;1675422;85;28000;-89
2022/06/30 07:48:13;;;;;;;19.32;15.83;;;;;;;26.94;100.00;97960.09;1674160;85;28158;-85
2022/06/30 07:50:39;;;;;;;21.48;15.88;;;;;;;27.08;100.00;97959.92;1674498;85;28071;-83
2022/06/30 07:53:05;;;;;;;23.83;16.40;;;;;;;27.20;100.00;97956.80;1675110;85;28202;-85
2022/06/30 07:55:32;;;;;;;22.05;16.80;;;;;;;27.30;100.00;97955.74;1671563;84;28112;-89
2022/06/30 07:57:58;;;;;;;21.75;16.05;;;;;;;27.28;100.00;97957.82;1676204;85;28129;-89
2022/06/30 08:00:24;;;;;;;20.62;14.78;;;;;;;27.35;100.00;97957.23;1674400;84;28223;-89
2022/06/30 08:02:56;;;;;;;18.07;14.33;;;;;;;27.45;100.00;97963.71;1674547;83;28157;-85
2022/06/30 08:05:22;;;;;;;18.30;13.50;;;;;;;27.52;100.00;97966.36;1672420;85;28103;-85
2022/06/30 08:07:49;;;;;;;15.90;13.30;;;;;;;27.63;100.00;97954.83;1675310;85;28106;-85
2022/06/30 08:10:16;;;;;;;17.98;14.07;;;;;;;27.82;100.00;97959.11;1673121;83;28003;-85
2022/06/30 08:12:43;;;;;;;21.37;14.80;;;;;;;28.02;100.00;97960.70;1672747;85;28067;-86
2022/06/30 08:15:10;;;;;;;20.25;14.85;;;;;;;28.18;100.00;97961.42;1672327;85;28165;-85
2022/06/30 08:17:36;;;;;;;19.55;12.88;;;;;;;28.22;100.00;97953.17;1672406;85;28170;-85
2022/06/30 08:20:02;;;;;;;15.90;12.68;;;;;;;28.29;100.00;97963.31;1676801;84;28126;-85
2022/06/30 08:22:28;;;;;;;19.52;12.75;;;;;;;28.36;100.00;97961.87;1689565;84;28180;-85
2022/06/30 08:24:55;;;;;;;14.63;12.85;;;;;;;28.40;100.00;97963.03;1691476;84;28116;-86
2022/06/30 08:27:21;;;;;;;18.85;15.05;;;;;;;28.50;100.00;97964.63;1691565;84;28191;-86
2022/06/30 08:29:47;;;;;;;21.80;16.10;;;;;;;28.54;100.00;97963.92;1666807;84;28100;-86
2022/06/30 08:32:13;;;;;;;20.88;17.20;;;;;;;28.47;100.00;97968.62;1682065;84;28130;-86
2022/06/30 08:34:39;;;;;;;20.50;15.38;;;;;;;28.54;100.00;97959.06;1692066;84;28089;-85
2022/06/30 08:37:05;;;;;;;21.60;16.30;;;;;;;28.54;100.00;97956.36;1692523;84;28097;-85
2022/06/30 08:42:20;;;;;;;21.85;15.40;;;;;;;28.67;100.00;97960.19;1691226;84;28050;-86
2022/06/30 08:45:13;;;;;;;19.45;15.60;;;;;;;28.63;100.00;97954.46;1691245;84;28101;-86
2022/06/30 08:47:15;;;;;;;22.32;16.55;;;;;;;28.77;100.00;97962.32;1687246;84;28079;-86
2022/06/30 08:49:41;;;;;;;23.27;15.35;;;;;;;28.65;100.00;97960.94;1690881;83;28046;-85
2022/06/30 08:52:10;;;;;;;24.82;16.25;;;;;;;28.64;100.00;97954.73;1691485;84;28029;-85
2022/06/30 08:54:39;;;;;;;20.37;16.25;;;;;;;28.74;100.00;97950.69;1691334;84;28095;-85
2022/06/30 08:57:09;;;;;;;19.85;15.35;;;;;;;28.87;100.00;97946.38;1690558;84;28157;-88
2022/06/30 08:59:36;;;;;;;22.75;16.82;;;;;;;28.88;100.00;97947.50;1692265;84;28018;-86
2022/06/30 09:02:02;;;;;;;22.82;15.75;;;;;;;28.90;100.00;97940.54;1690501;84;28103;-86
2022/06/30 09:04:30;;;;;;;19.65;15.23;;;;;;;28.95;100.00;97942.81;1691633;84;28196;-86
2022/06/30 09:06:57;;;;;;;18.42;14.85;;;;;;;28.89;100.00;97937.55;1691930;84;28194;-89
2022/06/30 09:09:32;;;;;;;17.80;13.00;;;;;;;28.93;100.00;97935.48;1690809;84;27991;-84
2022/06/30 09:11:58;;;;;;;22.20;15.88;;;;;;;28.98;100.00;97936.13;1691956;84;28156;-84
2022/06/30 09:14:42;;;;;;;21.75;14.15;;;;;;;29.08;100.00;97938.50;1691971;84;28092;-85
2022/06/30 09:17:17;;;;;;;18.27;13.93;;;;;;;29.15;100.00;97933.52;1692634;84;28157;-84
2022/06/30 09:19:59;;;;;;;22.15;14.58;;;;;;;29.10;100.00;97936.41;1691779;83;28091;-85
2022/06/30 09:22:44;;;;;;;18.37;14.68;;;;;;;29.05;100.00;97934.95;1691531;82;28039;-85
2022/06/30 09:25:15;;;;;;;16.25;13.28;;;;;;;29.05;100.00;97933.60;1690875;84;28078;-84
2022/06/30 09:27:44;;;;;;;17.83;13.80;;;;;;;29.16;100.00;97930.59;1691522;84;28074;-86
2022/06/30 09:30:16;;;;;;;18.52;14.03;;;;;;;29.19;100.00;97930.10;1691052;84;28113;-89
2022/06/30 09:33:02;;;;;;;16.77;12.80;;;;;;;29.19;100.00;97924.71;1691906;83;28149;-89
2022/06/30 09:35:31;;;;;;;17.82;13.45;;;;;;;29.20;100.00;97929.58;1641968;85;28073;-85
2022/06/30 09:38:11;;;;;;;16.52;13.58;;;;;;;29.23;100.00;97935.86;1699739;84;28125;-84
2022/06/30 09:41:01;;;;;;;16.42;13.13;;;;;;;29.27;100.00;97927.05;1665821;85;27998;-84
2022/06/30 09:43:36;;;;;;;18.70;13.62;;;;;;;29.34;100.00;97927.77;1666871;85;28055;-84
2022/06/30 09:46:04;;;;;;;18.75;13.10;;;;;;;29.38;100.00;97926.75;1692129;84;28165;-84
2022/06/30 09:48:37;;;;;;;15.88;12.60;;;;;;;29.45;100.00;97924.22;1691540;84;28106;-84
2022/06/30 09:51:03;;;;;;;13.72;11.70;;;;;;;29.43;100.00;97925.50;1691426;83;28093;-85
2022/06/30 09:53:30;;;;;;;15.68;12.50;;;;;;;29.44;100.00;97921.23;1691484;84;28180;-84
2022/06/30 09:56:01;;;;;;;20.80;14.18;;;;;;;29.51;100.00;97923.79;1691268;84;28059;-85
2022/06/30 09:58:32;;;;;;;;;;;;;;;29.51;100.00;97917.05;1686305;84;28203;-86
2022/06/30 10:01:00;;;;;;;16.13;12.10;;;;;;;29.51;100.00;97917.84;1693599;84;43405;-84
2022/06/30 10:03:26;;;;;;;13.00;11.60;;;;;;;29.54;100.00;97911.16;1691340;84;28043;-85
2022/06/30 10:06:13;;;;;;;15.28;11.28;;;;;;;29.60;100.00;97912.89;1691569;84;28068;-85
2022/06/30 10:08:47;;;;;;;16.65;12.65;;;;;;;29.70;100.00;97913.61;1691671;84;28166;-84
2022/06/30 10:11:13;;;;;;;14.60;12.55;;;;;;;29.76;100.00;97913.99;1689295;84;28095;-85
2022/06/30 10:13:43;;;;;;;14.07;11.97;;;;;;;29.84;100.00;97910.91;1692196;84;28178;-85
2022/06/30 10:16:11;;;;;;;14.58;11.83;;;;;;;29.89;100.00;97911.00;1692037;84;28075;-84
2022/06/30 10:18:39;;;;;;;16.15;11.78;;;;;;;29.88;100.00;97908.01;1690730;83;28486;-89
2022/06/30 10:21:08;;;;;;;17.62;13.22;;;;;;;29.91;100.00;97912.94;1691423;84;28101;-85
2022/06/30 10:23:35;;;;;;;14.40;12.53;;;;;;;29.96;100.00;97910.33;1692228;84;28137;-85
2022/06/30 10:26:06;;;;;;;17.67;13.05;;;;;;;30.02;100.00;97905.30;1692756;84;28066;-84
2022/06/30 10:28:38;;;;;;;18.67;13.85;;;;;;;30.04;100.00;97904.55;1692812;84;28086;-85
2022/06/30 10:31:21;;;;;;;17.48;12.43;;;;;;;30.13;100.00;97903.06;1692710;84;28161;-89
2022/06/30 10:34:08;;;;;;;18.05;13.48;;;;;;;30.21;100.00;97899.97;1687334;83;28138;-84
2022/06/30 10:36:47;;;;;;;17.92;13.03;;;;;;;30.20;100.00;97899.68;1691913;84;28201;-84
2022/06/30 10:39:43;;;;;;;14.05;12.53;;;;;;;30.19;100.00;97892.64;1691666;84;28062;-86
2022/06/30 10:42:10;;;;;;;15.23;12.50;;;;;;;30.26;100.00;97891.13;1690635;84;28146;-89
2022/06/30 10:44:37;;;;;;;14.23;12.18;;;;;;;30.26;100.00;97887.08;1690877;84;28075;-84
2022/06/30 10:47:05;;;;;;;16.32;12.82;;;;;;;30.28;100.00;97883.05;1692942;84;28115;-84
2022/06/30 10:49:32;;;;;;;15.20;12.03;;;;;;;30.37;100.00;97884.00;1690972;84;28164;-84
2022/06/30 10:52:24;;;;;;;14.05;12.65;;;;;;;30.40;100.00;97885.66;1693424;84;28070;-86
2022/06/30 10:54:54;;;;;;;16.05;12.15;;;;;;;30.46;100.00;97881.16;1692031;84;28110;-85
2022/06/30 10:57:21;;;;;;;17.00;12.55;;;;;;;30.54;100.00;97882.95;1690598;83;28122;-84
2022/06/30 10:59:49;;;;;;;12.07;10.78;;;;;;;30.53;100.00;97885.37;1694230;84;28168;-84
2022/06/30 11:02:21;;;;;;;13.40;10.80;;;;;;;30.51;100.00;97878.03;1694818;84;28074;-89
2022/06/30 11:04:50;;;;;;;12.47;10.98;;;;;;;30.48;100.00;97877.72;1690955;84;28120;-85
2022/06/30 11:07:21;;;;;;;11.20;10.03;;;;;;;30.50;100.00;97877.74;1693202;84;28023;-84
2022/06/30 11:09:58;;;;;;;12.68;10.53;;;;;;;30.62;100.00;97877.64;1691951;84;28010;-84
2022/06/30 11:12:39;;;;;;;11.88;10.13;;;;;;;30.72;100.00;97875.08;1692730;84;28106;-85
2022/06/30 11:15:04;;;;;;;11.68;10.25;;;;;;;30.80;100.00;97874.66;1691038;84;28120;-85
2022/06/30 11:17:33;;;;;;;13.55;10.40;;;;;;;30.95;100.00;97868.09;1692504;84;28125;-89
2022/06/30 11:20:04;;;;;;;16.80;11.48;;;;;;;31.03;100.00;97860.95;1694746;83;28031;-89
2022/06/30 11:22:31;;;;;;;14.47;11.10;;;;;;;31.06;100.00;97863.12;1680591;84;28098;-85
2022/06/30 11:25:01;;;;;;;11.95;10.15;;;;;;;31.14;100.00;97858.64;1681800;84;28092;-88
2022/06/30 11:27:28;;;;;;;13.72;10.58;;;;;;;31.14;100.00;97853.23;1675912;83;28122;-85
2022/06/30 11:30:00;;;;;;;12.78;11.00;;;;;;;31.13;100.00;97852.95;1638711;86;28080;-85
2022/06/30 11:32:26;;;;;;;13.53;10.53;;;;;;;31.17;100.00;97854.60;1674719;85;28797;-85